Terminal Aerodrome Forecast
Issued by NWS

Home | Current Version | Previous Version | Text Only | Print | Product List | Glossary On
Versions: 1 2 3 4 5 6 7 8 9 10 11 12 13 14 15 16 17 18 19 20 21 22 23 24
000
FTUS46 KMTR 180300 AAA
TAFSFO
TAF AMD
KSFO 180300Z 1803/1906 27015KT P6SM FEW012 FEW100 SCT200
     FM180500 27015KT P6SM SCT012
     FM180800 27015KT P6SM BKN015
     FM181800 27012KT P6SM FEW015
     FM182200 28020G25KT P6SM FEW015=

USA.gov is the U.S. government's official web portal to all federal, state and local government web resources and services.